Time;durP1;ratioP1;P1;durP2;ratioP2;P2;SDS_P1;SDS_P2;PMS_P1;PMS_P2;Temp;Humidity;BMP_temperature;BMP_pressure;BME280_temperature;BME280_humidity;BME280_pressure;Samples;Min_cycle;Max_cycle;Signal;HPM_P1;HPM_P2
2023/11/29 00:00:00;;;;;;;4.88;1.00;;;;;;;8.30;100.00;95783.53;5078310;28;20042;-79
2023/11/29 00:02:27;;;;;;;0.20;0.20;;;;;;;8.26;100.00;95800.69;5076224;28;20035;-80
2023/11/29 00:04:54;;;;;;;0.50;0.50;;;;;;;8.25;100.00;95804.31;5075197;28;20026;-79
2023/11/29 00:07:19;;;;;;;0.60;0.40;;;;;;;8.22;100.00;95804.56;5074750;28;20185;-79
2023/11/29 00:09:46;;;;;;;1.05;1.02;;;;;;;8.19;100.00;95818.13;5074917;28;20073;-78
2023/11/29 00:12:13;;;;;;;0.20;0.20;;;;;;;8.22;100.00;95822.34;5074872;28;20051;-79
2023/11/29 00:14:38;;;;;;;0.30;0.30;;;;;;;8.19;100.00;95824.31;5083184;28;20023;-79
2023/11/29 00:17:04;;;;;;;0.63;0.63;;;;;;;8.30;100.00;95825.31;5074705;28;20391;-79
2023/11/29 00:19:30;;;;;;;0.73;0.73;;;;;;;8.31;100.00;95832.31;5074248;28;20042;-79
2023/11/29 00:21:56;;;;;;;1.85;0.98;;;;;;;8.40;100.00;95837.75;5074978;28;20099;-79
2023/11/29 00:24:21;;;;;;;4.70;0.73;;;;;;;8.48;100.00;95838.00;5066872;28;20400;-79
2023/11/29 00:26:47;;;;;;;0.57;0.57;;;;;;;8.53;100.00;95826.94;5078998;28;20036;-79
2023/11/29 00:29:12;;;;;;;0.32;0.32;;;;;;;8.62;100.00;95832.38;5071138;28;20032;-78
2023/11/29 00:31:38;;;;;;;0.80;0.60;;;;;;;8.68;100.00;95826.53;5073509;28;20124;-78
2023/11/29 00:34:04;;;;;;;0.63;0.38;;;;;;;8.72;100.00;95843.13;5072329;28;20032;-79
2023/11/29 00:36:30;;;;;;;0.15;0.15;;;;;;;8.71;100.00;95852.09;5094577;28;20032;-79
2023/11/29 00:38:56;;;;;;;0.20;0.20;;;;;;;8.76;100.00;95875.72;5069392;28;20031;-80
2023/11/29 00:41:21;;;;;;;0.10;0.10;;;;;;;8.79;100.00;95886.97;5070818;28;20028;-78
2023/11/29 00:43:47;;;;;;;0.30;0.30;;;;;;;8.79;100.00;95900.31;5074285;28;20093;-78
2023/11/29 00:46:13;;;;;;;1.00;0.77;;;;;;;8.93;100.00;95909.81;5074077;28;20529;-78
2023/11/29 00:48:38;;;;;;;0.10;0.10;;;;;;;8.96;100.00;95909.56;5084530;28;20074;-79
2023/11/29 00:51:05;;;;;;;0.45;0.45;;;;;;;8.92;100.00;95902.81;5077265;28;20028;-79
2023/11/29 00:53:30;;;;;;;0.98;0.50;;;;;;;8.96;100.00;95915.75;5094148;28;20516;-79
2023/11/29 00:55:56;;;;;;;0.45;0.45;;;;;;;8.97;100.00;95898.81;5112647;28;20020;-79
2023/11/29 00:58:22;;;;;;;0.55;0.43;;;;;;;9.01;100.00;95897.56;5077236;28;20479;-78
2023/11/29 01:00:47;;;;;;;0.10;0.10;;;;;;;8.97;100.00;95888.13;5068648;28;20106;-78
2023/11/29 01:03:13;;;;;;;0.52;0.40;;;;;;;8.99;100.00;95883.50;5077374;28;20366;-78
2023/11/29 01:05:38;;;;;;;0.68;0.68;;;;;;;8.98;100.00;95887.13;5074879;28;20024;-79
2023/11/29 01:08:04;;;;;;;1.23;1.13;;;;;;;8.90;100.00;95888.75;5074172;28;20080;-78
2023/11/29 01:10:30;;;;;;;0.80;0.50;;;;;;;8.85;100.00;95897.13;5091575;28;20035;-78
2023/11/29 01:12:56;;;;;;;0.60;0.60;;;;;;;8.86;100.00;95901.47;5073901;28;20032;-78
2023/11/29 01:15:21;;;;;;;1.27;1.02;;;;;;;8.82;100.00;95902.72;5073886;28;20491;-78
2023/11/29 01:17:47;;;;;;;0.98;0.88;;;;;;;8.76;100.00;95905.03;5076064;28;20031;-78
2023/11/29 01:20:13;;;;;;;0.80;0.80;;;;;;;8.73;100.00;95899.94;5058501;28;20062;-79
2023/11/29 01:22:38;;;;;;;0.63;0.63;;;;;;;8.77;100.00;95894.22;5073455;28;20047;-78
2023/11/29 01:25:05;;;;;;;0.43;0.43;;;;;;;8.75;100.00;95906.84;5093866;28;20115;-78
2023/11/29 01:27:31;;;;;;;0.30;0.30;;;;;;;8.60;100.00;95918.75;5076960;28;20502;-78
2023/11/29 01:29:57;;;;;;;0.10;0.10;;;;;;;8.51;100.00;95908.81;5093681;28;20034;-78
2023/11/29 01:32:24;;;;;;;1.13;0.98;;;;;;;8.49;100.00;95924.09;5076458;28;20028;-78
2023/11/29 01:34:50;;;;;;;3.42;0.88;;;;;;;8.47;100.00;95928.69;5073518;28;20026;-78
2023/11/29 01:37:15;;;;;;;0.70;0.38;;;;;;;8.60;100.00;95919.59;5079730;28;20402;-78
2023/11/29 01:39:46;;;;;;;0.20;0.20;;;;;;;8.74;100.00;95929.13;5093338;28;20031;-79
2023/11/29 01:42:12;;;;;;;0.65;0.65;;;;;;;8.81;100.00;95940.16;5105479;28;20524;-79
2023/11/29 01:44:37;;;;;;;0.00;0.00;;;;;;;8.85;100.00;95917.63;5073062;28;20036;-79
2023/11/29 01:47:08;;;;;;;0.50;0.50;;;;;;;8.90;100.00;95926.94;5073295;28;20015;-79
2023/11/29 01:49:34;;;;;;;0.20;0.20;;;;;;;8.81;100.00;95926.81;5052560;28;20048;-78
2023/11/29 01:51:59;;;;;;;0.10;0.10;;;;;;;8.82;100.00;95934.72;5069563;28;20028;-78
2023/11/29 01:54:25;;;;;;;0.20;0.20;;;;;;;8.70;100.00;95947.19;5069603;28;20036;-78
2023/11/29 01:56:51;;;;;;;0.10;0.10;;;;;;;8.65;100.00;95951.19;5069474;28;21288;-79
2023/11/29 01:59:16;;;;;;;2.38;0.75;;;;;;;8.55;100.00;95950.25;5069686;28;20663;-79
2023/11/29 02:01:42;;;;;;;0.20;0.20;;;;;;;8.43;100.00;95962.69;5069515;28;20033;-79
2023/11/29 02:04:09;;;;;;;0.10;0.10;;;;;;;8.38;100.00;95966.69;5069264;28;20024;-78
2023/11/29 02:06:34;;;;;;;0.10;0.10;;;;;;;8.26;100.00;95956.97;5069347;28;20063;-78
2023/11/29 02:09:00;;;;;;;0.10;0.10;;;;;;;8.18;100.00;95963.75;5069599;28;20033;-78
2023/11/29 02:11:27;;;;;;;0.20;0.20;;;;;;;8.03;100.00;95948.97;5069228;28;20037;-78
2023/11/29 02:13:53;;;;;;;0.10;0.10;;;;;;;8.14;100.00;95964.13;5069414;28;20490;-78
2023/11/29 02:16:18;;;;;;;0.15;0.15;;;;;;;8.23;100.00;95970.53;5070731;28;20082;-78
2023/11/29 02:18:44;;;;;;;0.13;0.13;;;;;;;8.19;100.00;95968.13;5069277;28;20037;-78
2023/11/29 02:21:09;;;;;;;0.10;0.10;;;;;;;8.21;100.00;95964.50;5069621;28;20019;-78
2023/11/29 02:23:49;;;;;;;0.17;0.17;;;;;;;8.29;100.00;95978.94;5069313;28;20557;-77
2023/11/29 02:26:14;;;;;;;0.70;0.47;;;;;;;8.26;100.00;95970.28;5068980;28;20063;-77
2023/11/29 02:28:40;;;;;;;0.10;0.10;;;;;;;8.29;100.00;95967.44;5052642;28;20064;-78
2023/11/29 02:31:06;;;;;;;1.05;0.40;;;;;;;8.23;100.00;95978.53;5069300;28;20032;-78
2023/11/29 02:33:31;;;;;;;0.03;0.03;;;;;;;8.16;100.00;95972.81;5069818;28;20567;-78
2023/11/29 02:35:57;;;;;;;0.50;0.47;;;;;;;8.18;100.00;95977.06;5052809;28;20043;-79
2023/11/29 02:38:22;;;;;;;0.10;0.10;;;;;;;8.28;100.00;95973.72;5069533;28;20070;-77
2023/11/29 02:40:48;;;;;;;0.50;0.22;;;;;;;8.34;100.00;95957.25;5068703;28;20055;-78
2023/11/29 02:43:14;;;;;;;1.98;0.52;;;;;;;8.38;100.00;95982.69;5069077;28;20032;-78
2023/11/29 02:45:39;;;;;;;0.10;0.10;;;;;;;8.38;100.00;95980.03;5069139;28;20035;-78
2023/11/29 02:48:05;;;;;;;0.20;0.20;;;;;;;8.43;100.00;95975.19;5069525;28;20039;-77
2023/11/29 02:50:32;;;;;;;0.30;0.30;;;;;;;8.41;100.00;95977.13;5052269;28;20052;-77
2023/11/29 02:52:57;;;;;;;0.10;0.10;;;;;;;8.41;100.00;95982.44;5069020;28;20073;-79
2023/11/29 02:55:23;;;;;;;2.38;0.63;;;;;;;8.39;100.00;95987.91;5068837;28;20119;-78
2023/11/29 02:57:49;;;;;;;0.05;0.05;;;;;;;8.37;100.00;95987.16;5068792;28;20055;-79
2023/11/29 03:00:15;;;;;;;0.20;0.20;;;;;;;8.38;100.00;95994.19;5069269;28;20028;-78
2023/11/29 03:02:41;;;;;;;0.30;0.30;;;;;;;8.29;100.00;95992.25;5052260;28;20035;-77
2023/11/29 03:05:07;;;;;;;0.20;0.20;;;;;;;8.29;100.00;95988.72;5069359;28;20111;-77
2023/11/29 03:07:33;;;;;;;1.38;0.60;;;;;;;8.30;100.00;95985.97;5052462;28;20119;-77
2023/11/29 03:09:58;;;;;;;0.40;0.40;;;;;;;8.29;100.00;95986.06;5068730;28;20071;-78
2023/11/29 03:12:24;;;;;;;0.10;0.10;;;;;;;8.19;100.00;95999.22;5068778;28;20488;-77
2023/11/29 03:14:50;;;;;;;0.20;0.20;;;;;;;8.13;100.00;96003.22;5068820;28;20083;-78
2023/11/29 03:17:15;;;;;;;0.20;0.20;;;;;;;8.06;100.00;95999.31;5071078;28;20036;-78
2023/11/29 03:19:41;;;;;;;0.13;0.13;;;;;;;7.96;100.00;96009.00;5055687;28;20139;-78
2023/11/29 03:22:07;;;;;;;0.63;0.63;;;;;;;7.89;100.00;96001.56;5072295;28;20048;-78
2023/11/29 03:24:32;;;;;;;0.80;0.57;;;;;;;7.91;100.00;96015.59;5072318;28;20120;-77
2023/11/29 03:26:58;;;;;;;0.20;0.20;;;;;;;7.82;100.00;96029.59;5071831;28;20036;-77
2023/11/29 03:29:24;;;;;;;0.20;0.20;;;;;;;7.80;100.00;96032.41;5072367;28;20031;-77
2023/11/29 03:31:50;;;;;;;0.10;0.10;;;;;;;7.73;100.00;96025.84;5055630;28;20036;-78
2023/11/29 03:34:16;;;;;;;0.90;0.55;;;;;;;7.78;100.00;96039.66;5072386;28;20441;-77
2023/11/29 03:36:42;;;;;;;0.22;0.22;;;;;;;7.80;100.00;96040.38;5072479;28;20101;-77
2023/11/29 03:39:09;;;;;;;0.20;0.20;;;;;;;7.89;100.00;96060.13;5055704;28;20093;-78
2023/11/29 03:41:35;;;;;;;3.72;0.60;;;;;;;7.83;100.00;96045.47;5073878;28;20024;-78
2023/11/29 03:44:00;;;;;;;0.28;0.28;;;;;;;7.78;100.00;96039.66;5072454;28;20032;-78
2023/11/29 03:46:26;;;;;;;0.20;0.20;;;;;;;7.71;100.00;96029.56;5072288;28;20036;-78
2023/11/29 03:48:52;;;;;;;2.08;0.80;;;;;;;7.70;100.00;96042.03;5077061;28;20476;-78
2023/11/29 03:51:17;;;;;;;0.73;0.47;;;;;;;7.65;100.00;96046.84;5095678;28;20034;-78
2023/11/29 03:53:43;;;;;;;0.38;0.38;;;;;;;7.70;100.00;96041.19;5078429;28;20097;-78
2023/11/29 03:56:08;;;;;;;0.15;0.15;;;;;;;7.60;100.00;96055.16;5078340;28;20403;-78
2023/11/29 03:58:34;;;;;;;0.17;0.17;;;;;;;7.58;100.00;96050.94;5085669;28;20028;-78
2023/11/29 04:01:02;;;;;;;0.30;0.30;;;;;;;7.63;100.00;96056.75;5073298;28;20034;-78
2023/11/29 04:03:27;;;;;;;0.60;0.20;;;;;;;7.59;100.00;96060.63;5058747;28;20059;-79
2023/11/29 04:05:53;;;;;;;0.40;0.40;;;;;;;7.66;100.00;96058.34;5075176;28;20454;-79
2023/11/29 04:08:19;;;;;;;0.20;0.20;;;;;;;7.58;100.00;96057.09;5113531;28;20032;-78
2023/11/29 04:10:44;;;;;;;0.20;0.20;;;;;;;7.53;100.00;96067.25;5078546;28;20019;-77
2023/11/29 04:13:10;;;;;;;0.17;0.17;;;;;;;7.50;100.00;96069.28;5095000;28;20236;-78
2023/11/29 04:15:36;;;;;;;0.50;0.50;;;;;;;7.38;100.00;96076.31;5095153;28;20031;-77
2023/11/29 04:18:02;;;;;;;0.28;0.28;;;;;;;7.23;100.00;96066.78;5077725;28;20084;-77
2023/11/29 04:20:27;;;;;;;0.10;0.10;;;;;;;7.14;100.00;96082.59;5095224;28;20024;-77
2023/11/29 04:22:53;;;;;;;0.30;0.30;;;;;;;6.94;100.00;96082.19;5094436;28;20015;-77
2023/11/29 04:25:19;;;;;;;2.38;0.70;;;;;;;6.83;100.00;96084.75;5069404;28;20027;-77
2023/11/29 04:27:45;;;;;;;1.38;0.28;;;;;;;6.81;100.00;96092.00;5094248;28;20118;-78
2023/11/29 04:30:11;;;;;;;0.20;0.20;;;;;;;6.68;100.00;96104.44;5077922;28;20114;-78
2023/11/29 04:32:36;;;;;;;0.85;0.85;;;;;;;6.57;100.00;96111.44;5094078;28;20019;-78
2023/11/29 04:35:03;;;;;;;0.50;0.50;;;;;;;6.56;100.00;96121.22;5076626;28;20035;-78
2023/11/29 04:37:29;;;;;;;0.52;0.52;;;;;;;6.55;100.00;96123.03;5074081;28;20028;-78
2023/11/29 04:39:55;;;;;;;2.47;1.40;;;;;;;6.48;100.00;96131.53;5074012;28;20030;-78
2023/11/29 04:42:21;;;;;;;3.97;2.10;;;;;;;6.37;100.00;96128.75;5074297;28;20483;-78
2023/11/29 04:44:47;;;;;;;0.60;0.57;;;;;;;6.25;100.00;96140.19;5064428;28;20120;-78
2023/11/29 04:47:14;;;;;;;0.20;0.20;;;;;;;6.18;100.00;96136.28;5057387;28;20040;-77
2023/11/29 04:49:40;;;;;;;0.57;0.57;;;;;;;6.08;100.00;96141.34;5091067;28;20050;-78
2023/11/29 04:52:06;;;;;;;1.65;0.82;;;;;;;5.97;100.00;96142.03;5073490;28;20099;-78
2023/11/29 04:54:32;;;;;;;1.38;0.82;;;;;;;5.95;100.00;96140.44;5090839;28;20106;-77
2023/11/29 04:56:58;;;;;;;9.30;1.63;;;;;;;5.86;100.00;96147.22;5056944;28;20028;-78
2023/11/29 04:59:23;;;;;;;1.38;0.70;;;;;;;5.86;100.00;96144.56;5093671;28;20115;-78
2023/11/29 05:01:49;;;;;;;0.80;0.80;;;;;;;5.82;100.00;96158.94;5067424;28;20056;-79
2023/11/29 05:04:15;;;;;;;0.25;0.25;;;;;;;5.79;100.00;96145.03;5074352;28;20416;-78
2023/11/29 05:06:40;;;;;;;0.73;0.68;;;;;;;5.86;100.00;96146.38;5088644;28;20030;-79
2023/11/29 05:09:14;;;;;;;7.32;3.70;;;;;;;5.69;100.00;96150.06;5073504;28;20103;-79
2023/11/29 05:11:41;;;;;;;8.27;5.10;;;;;;;5.68;100.00;96151.03;5057489;28;20475;-79
2023/11/29 05:14:06;;;;;;;8.52;3.83;;;;;;;5.62;100.00;96138.19;5074211;28;20031;-80
2023/11/29 05:16:33;;;;;;;10.93;3.97;;;;;;;5.58;100.00;96155.22;5060731;28;20115;-80
2023/11/29 05:18:59;;;;;;;8.23;2.97;;;;;;;5.34;100.00;96146.22;5078690;28;20024;-78
2023/11/29 05:21:26;;;;;;;4.97;2.67;;;;;;;5.27;100.00;96139.59;5072765;28;20066;-79
2023/11/29 05:23:52;;;;;;;7.30;3.80;;;;;;;5.32;100.00;96140.16;5090308;28;20063;-78
2023/11/29 05:26:17;;;;;;;8.77;3.30;;;;;;;5.31;100.00;96135.81;5081758;28;20039;-79
2023/11/29 05:28:43;;;;;;;5.63;2.67;;;;;;;5.31;100.00;96134.00;5073502;28;20024;-78
2023/11/29 05:31:09;;;;;;;3.30;2.30;;;;;;;5.40;100.00;96136.06;5073543;28;20028;-78
2023/11/29 05:33:34;;;;;;;6.75;2.83;;;;;;;5.35;100.00;96116.94;5093203;28;20042;-78
2023/11/29 05:36:00;;;;;;;5.88;3.20;;;;;;;5.36;100.00;96116.00;5082391;28;20028;-78
2023/11/29 05:38:26;;;;;;;10.32;5.07;;;;;;;5.42;100.00;96122.69;5063735;28;20483;-78
2023/11/29 05:40:51;;;;;;;16.63;6.32;;;;;;;5.50;100.00;96125.72;5081389;28;20031;-79
2023/11/29 05:43:17;;;;;;;13.73;6.55;;;;;;;5.49;100.00;96131.97;5073047;28;20055;-79
2023/11/29 05:45:42;;;;;;;7.72;3.50;;;;;;;5.59;100.00;96153.44;5077949;28;20106;-78
2023/11/29 05:48:08;;;;;;;9.40;4.60;;;;;;;5.60;100.00;96153.31;5092613;28;20469;-79
2023/11/29 05:50:35;;;;;;;9.48;5.35;;;;;;;5.65;100.00;96153.03;5089386;28;20127;-79
2023/11/29 05:53:02;;;;;;;10.68;5.10;;;;;;;5.73;100.00;96148.94;5073850;28;20024;-78
2023/11/29 05:55:27;;;;;;;15.05;6.15;;;;;;;5.86;100.00;96156.97;5080349;28;20024;-79
2023/11/29 05:57:53;;;;;;;5.15;2.90;;;;;;;5.96;100.00;96156.28;5072642;28;20345;-78
2023/11/29 06:00:19;;;;;;;10.55;4.88;;;;;;;6.11;100.00;96166.81;5089600;28;20031;-78
2023/11/29 06:02:45;;;;;;;17.60;6.85;;;;;;;6.07;100.00;96160.00;5089492;28;20024;-78
2023/11/29 06:05:11;;;;;;;29.52;10.35;;;;;;;6.03;100.00;96177.09;5055515;28;20039;-78
2023/11/29 06:07:37;;;;;;;12.48;7.22;;;;;;;5.79;100.00;96182.16;5082697;28;20026;-78
2023/11/29 06:10:04;;;;;;;26.20;11.13;;;;;;;5.77;100.00;96192.88;5072429;28;20036;-79
2023/11/29 06:12:31;;;;;;;25.65;13.52;;;;;;;5.84;100.00;96191.53;5078192;28;20020;-77
2023/11/29 06:14:56;;;;;;;56.38;35.20;;;;;;;5.88;100.00;96203.69;5069388;28;20194;-79
2023/11/29 06:17:23;;;;;;;34.65;17.23;;;;;;;5.90;100.00;96209.75;5070480;28;20079;-79
2023/11/29 06:19:49;;;;;;;32.10;14.32;;;;;;;5.88;100.00;96197.50;5084348;28;20396;-78
2023/11/29 06:22:15;;;;;;;27.27;12.70;;;;;;;6.06;100.00;96208.75;5069085;28;20021;-79
2023/11/29 06:24:46;;;;;;;35.88;15.80;;;;;;;6.06;100.00;96211.41;5069362;28;20024;-79
2023/11/29 06:27:12;;;;;;;44.58;17.65;;;;;;;6.14;100.00;96217.91;5086394;28;20507;-78
2023/11/29 06:29:37;;;;;;;16.20;7.65;;;;;;;6.16;100.00;96213.34;5064345;28;20035;-79
2023/11/29 06:32:03;;;;;;;10.65;5.45;;;;;;;6.26;100.00;96210.94;5073881;28;20036;-79
2023/11/29 06:34:29;;;;;;;10.02;6.00;;;;;;;6.37;100.00;96216.34;5068748;28;20555;-78
2023/11/29 06:36:55;;;;;;;14.63;6.75;;;;;;;6.44;100.00;96209.69;5068892;28;20163;-79
2023/11/29 06:39:21;;;;;;;24.75;12.40;;;;;;;6.94;100.00;96209.78;5069043;28;20064;-78
2023/11/29 06:41:47;;;;;;;31.58;16.92;;;;;;;7.53;100.00;96223.34;5082069;28;20058;-79
2023/11/29 06:44:13;;;;;;;43.42;24.05;;;;;;;7.59;100.00;96234.41;5092164;28;20035;-79
2023/11/29 06:46:40;;;;;;;36.63;19.98;;;;;;;7.55;100.00;96227.59;5089358;28;20024;-78
2023/11/29 06:49:09;;;;;;;43.95;23.85;;;;;;;7.69;100.00;96242.56;5094730;28;20039;-79
2023/11/29 06:51:36;;;;;;;34.72;18.13;;;;;;;7.82;100.00;96243.38;5092275;28;20097;-80
2023/11/29 06:54:02;;;;;;;40.70;19.63;;;;;;;7.78;100.00;96243.72;5076323;28;20458;-79
2023/11/29 06:56:28;;;;;;;38.58;20.13;;;;;;;8.35;100.00;96241.31;5060740;28;20402;-79
2023/11/29 06:58:53;;;;;;;39.85;20.50;;;;;;;9.51;100.00;96247.44;5079791;28;20085;-78
2023/11/29 07:01:20;;;;;;;45.78;21.35;;;;;;;9.67;100.00;96240.78;5096205;28;20407;-78
2023/11/29 07:03:45;;;;;;;41.60;21.40;;;;;;;9.27;100.00;96235.06;5096361;28;20023;-79
2023/11/29 07:06:21;;;;;;;40.28;21.35;;;;;;;8.86;100.00;96256.06;5096155;28;20028;-79
2023/11/29 07:08:47;;;;;;;38.85;19.13;;;;;;;8.78;100.00;96269.13;5096052;28;20045;-78
2023/11/29 07:11:13;;;;;;;34.42;18.13;;;;;;;8.73;100.00;96284.63;5095867;28;20110;-78
2023/11/29 07:13:38;;;;;;;44.65;22.55;;;;;;;8.81;100.00;96279.56;5078903;28;20070;-79
2023/11/29 07:16:04;;;;;;;30.92;18.00;;;;;;;8.47;100.00;96285.69;5081341;28;20110;-78
2023/11/29 07:18:30;;;;;;;37.30;19.52;;;;;;;8.36;100.00;96280.31;5058588;28;20043;-80
2023/11/29 07:20:56;;;;;;;29.65;13.70;;;;;;;8.30;100.00;96288.75;5076002;28;20048;-79
2023/11/29 07:23:22;;;;;;;23.77;11.43;;;;;;;8.05;100.00;96294.97;5075672;28;20035;-80
2023/11/29 07:25:49;;;;;;;20.40;10.00;;;;;;;8.04;100.00;96299.44;5083849;28;20032;-79
2023/11/29 07:28:15;;;;;;;20.13;9.88;;;;;;;8.14;100.00;96295.19;5058861;28;20024;-78
2023/11/29 07:30:41;;;;;;;17.05;8.82;;;;;;;8.01;100.00;96291.69;5075087;28;20127;-79
2023/11/29 07:33:07;;;;;;;24.48;14.30;;;;;;;7.93;100.00;96283.41;5075323;28;20104;-79
2023/11/29 07:35:33;;;;;;;47.72;19.92;;;;;;;8.01;100.00;96281.03;5076506;28;20024;-79
2023/11/29 07:38:02;;;;;;;51.17;21.00;;;;;;;8.11;100.00;96292.72;5078715;28;20028;-78
2023/11/29 07:40:28;;;;;;;27.80;13.25;;;;;;;8.41;100.00;96313.66;5078545;28;20031;-79
2023/11/29 07:42:53;;;;;;;27.17;14.00;;;;;;;9.56;100.00;96304.88;5086875;28;20018;-78
2023/11/29 07:45:19;;;;;;;21.40;11.10;;;;;;;10.62;100.00;96298.97;5095460;28;20031;-78
2023/11/29 07:47:45;;;;;;;20.90;9.98;;;;;;;10.66;100.00;96292.41;5075502;28;20427;-78
2023/11/29 07:50:14;;;;;;;25.85;13.05;;;;;;;10.67;100.00;96290.59;5074601;28;20043;-79
2023/11/29 07:52:42;;;;;;;29.75;13.80;;;;;;;10.84;100.00;96300.72;5077455;28;20108;-78
2023/11/29 07:55:08;;;;;;;22.58;11.73;;;;;;;10.98;100.00;96307.63;5064090;28;20051;-79
2023/11/29 07:57:34;;;;;;;47.58;20.27;;;;;;;10.78;100.00;96318.13;5074677;28;20064;-80
2023/11/29 08:00:05;;;;;;;48.17;22.30;;;;;;;10.54;100.00;96317.47;5074593;28;20066;-80
2023/11/29 08:02:31;;;;;;;40.20;19.35;;;;;;;10.24;100.00;96312.78;5057501;28;20099;-79
2023/11/29 08:04:56;;;;;;;39.78;18.65;;;;;;;10.03;100.00;96325.13;5058065;28;20111;-79
2023/11/29 08:07:22;;;;;;;16.90;8.45;;;;;;;9.97;100.00;96324.78;5066837;28;20047;-79
2023/11/29 08:09:47;;;;;;;17.73;8.75;;;;;;;9.92;100.00;96327.81;5057815;28;20043;-79
2023/11/29 08:12:14;;;;;;;24.63;10.43;;;;;;;9.94;100.00;96341.91;5097089;28;20034;-79
2023/11/29 08:14:40;;;;;;;17.33;7.97;;;;;;;9.87;100.00;96346.03;5077487;28;20443;-79
2023/11/29 08:17:06;;;;;;;12.38;6.53;;;;;;;9.84;100.00;96337.41;5094650;28;20023;-79
2023/11/29 08:19:31;;;;;;;13.13;6.28;;;;;;;9.84;100.00;96330.25;5077723;28;20495;-80
2023/11/29 08:22:00;;;;;;;20.98;8.90;;;;;;;9.69;100.00;96342.13;5082495;28;20020;-80
2023/11/29 08:24:27;;;;;;;9.65;6.00;;;;;;;9.80;100.00;96350.16;5054851;28;20032;-79
2023/11/29 08:26:52;;;;;;;12.77;6.60;;;;;;;10.10;100.00;96342.38;5073361;28;20474;-80
2023/11/29 08:29:18;;;;;;;12.20;6.85;;;;;;;10.13;100.00;96339.50;5074384;28;20020;-80
2023/11/29 08:31:43;;;;;;;12.45;5.22;;;;;;;10.21;100.00;96334.38;5083791;28;20516;-79
2023/11/29 08:34:09;;;;;;;7.18;4.57;;;;;;;10.28;100.00;96340.94;5094199;28;20031;-79
2023/11/29 08:36:35;;;;;;;9.15;3.97;;;;;;;10.40;100.00;96338.28;5077147;28;20104;-79
2023/11/29 08:39:00;;;;;;;20.45;10.40;;;;;;;10.26;100.00;96337.56;5077301;28;20484;-79
2023/11/29 08:41:26;;;;;;;7.90;4.68;;;;;;;10.48;100.00;96343.84;5077060;28;20030;-79
2023/11/29 08:43:51;;;;;;;18.25;8.52;;;;;;;10.50;100.00;96349.91;5091441;28;20141;-78
2023/11/29 08:46:17;;;;;;;17.85;9.32;;;;;;;10.27;100.00;96365.16;5073855;28;20024;-78
2023/11/29 08:48:43;;;;;;;17.88;9.65;;;;;;;10.17;100.00;96370.38;5073445;28;20085;-79
2023/11/29 08:51:08;;;;;;;14.73;7.82;;;;;;;9.73;100.00;96381.81;5053584;28;20067;-80
2023/11/29 08:53:35;;;;;;;13.45;8.10;;;;;;;9.73;100.00;96388.97;5069993;28;20028;-79
2023/11/29 08:56:00;;;;;;;11.88;7.03;;;;;;;9.54;100.00;96402.88;5056950;28;20028;-79
2023/11/29 08:58:26;;;;;;;16.95;8.02;;;;;;;9.56;100.00;96400.09;5091794;28;20047;-78
2023/11/29 09:00:52;;;;;;;10.23;6.10;;;;;;;9.68;100.00;96400.03;5073200;28;20036;-78
2023/11/29 09:03:17;;;;;;;14.13;7.80;;;;;;;9.91;100.00;96386.69;5073453;28;20024;-79
2023/11/29 09:05:43;;;;;;;15.15;8.48;;;;;;;10.34;100.00;96385.91;5073103;28;20533;-79
2023/11/29 09:08:09;;;;;;;17.98;9.13;;;;;;;10.57;100.00;96373.38;5073274;28;20039;-80
2023/11/29 09:10:37;;;;;;;22.30;12.15;;;;;;;10.97;100.00;96359.41;5056490;28;20024;-80
2023/11/29 09:13:05;;;;;;;6.85;4.35;;;;;;;12.71;100.00;96342.44;5076866;28;20028;-79
2023/11/29 09:15:33;;;;;;;15.43;6.80;;;;;;;13.57;100.00;96330.91;5093802;28;20039;-79
2023/11/29 09:18:02;;;;;;;7.72;4.75;;;;;;;13.46;100.00;96342.69;5093463;28;21072;-78
2023/11/29 09:20:27;;;;;;;12.77;5.35;;;;;;;13.26;100.00;96337.47;5076490;28;20073;-79
2023/11/29 09:22:53;;;;;;;8.73;3.50;;;;;;;12.47;100.00;96317.81;5082958;28;20066;-79
2023/11/29 09:25:19;;;;;;;6.10;3.50;;;;;;;12.59;100.00;96342.66;5078541;28;20080;-79
2023/11/29 09:27:44;;;;;;;5.35;3.60;;;;;;;13.57;98.52;96325.56;5092412;28;20035;-79
2023/11/29 09:30:11;;;;;;;4.18;3.30;;;;;;;15.56;81.59;96326.59;5056204;28;20036;-79
2023/11/29 09:32:36;;;;;;;5.95;3.80;;;;;;;16.52;72.07;96293.16;5072868;28;20039;-80
2023/11/29 09:35:04;;;;;;;11.45;4.70;;;;;;;16.75;70.71;96299.69;5056123;28;20028;-79
2023/11/29 09:37:30;;;;;;;7.05;4.70;;;;;;;17.67;65.27;96309.50;5073174;28;20470;-79
2023/11/29 09:39:56;;;;;;;7.28;4.60;;;;;;;19.53;57.36;96306.22;5074627;28;20032;-80
2023/11/29 09:42:22;;;;;;;4.88;2.92;;;;;;;19.91;52.82;96295.19;5111700;28;20042;-78
2023/11/29 09:44:49;;;;;;;8.88;4.55;;;;;;;19.00;54.31;96309.72;5084113;28;20444;-78
2023/11/29 09:47:15;;;;;;;5.88;4.28;;;;;;;19.04;54.84;96302.94;5069111;28;20036;-78
2023/11/29 09:49:40;;;;;;;11.70;3.92;;;;;;;19.31;51.77;96305.13;5076718;28;20430;-78
2023/11/29 09:52:06;;;;;;;6.20;3.90;;;;;;;19.38;51.27;96300.69;5081161;28;20024;-79
2023/11/29 09:54:32;;;;;;;13.20;8.57;;;;;;;20.59;49.99;96296.06;5096705;28;20062;-79
2023/11/29 09:56:59;;;;;;;12.52;7.03;;;;;;;20.53;50.54;96295.78;5074310;28;20495;-80
2023/11/29 09:59:24;;;;;;;21.33;9.70;;;;;;;20.39;50.36;96296.63;5081071;28;20039;-78
2023/11/29 10:01:51;;;;;;;22.27;7.97;;;;;;;19.81;48.95;96286.44;5056726;28;20077;-79
2023/11/29 10:04:17;;;;;;;9.23;5.60;;;;;;;18.83;51.78;96309.78;5067773;28;20039;-79
2023/11/29 10:06:43;;;;;;;7.45;4.22;;;;;;;17.92;53.49;96315.75;5076559;28;20411;-79
2023/11/29 10:09:12;;;;;;;5.60;3.72;;;;;;;16.96;57.80;96333.50;5072415;28;20038;-78
2023/11/29 10:11:41;;;;;;;4.78;3.17;;;;;;;15.55;67.57;96354.56;5073337;28;20412;-79
2023/11/29 10:14:07;;;;;;;4.28;3.10;;;;;;;14.70;73.56;96347.88;5083291;28;20040;-79
2023/11/29 10:16:34;;;;;;;3.33;2.58;;;;;;;14.33;81.50;96372.13;5092324;28;20024;-78
2023/11/29 10:19:04;;;;;;;2.85;2.10;;;;;;;13.85;76.81;96362.28;5075581;28;20383;-78
2023/11/29 10:21:30;;;;;;;3.78;2.45;;;;;;;13.36;83.52;96378.59;5078465;28;20020;-78
2023/11/29 10:23:55;;;;;;;8.02;4.95;;;;;;;13.31;86.08;96383.53;5072003;28;20082;-80
2023/11/29 10:26:25;;;;;;;3.83;2.60;;;;;;;13.38;86.94;96390.88;5074814;28;20028;-78
2023/11/29 10:28:54;;;;;;;6.90;3.47;;;;;;;13.24;89.82;96393.97;5076210;28;20035;-78
2023/11/29 10:31:19;;;;;;;8.73;4.82;;;;;;;13.05;92.73;96383.19;5076748;28;20099;-79
2023/11/29 10:33:46;;;;;;;7.13;4.68;;;;;;;13.04;98.98;96394.91;5076314;28;20020;-79
2023/11/29 10:36:12;;;;;;;8.48;4.50;;;;;;;12.61;100.00;96397.06;5067605;28;20051;-80
2023/11/29 10:38:59;;;;;;;5.70;3.90;;;;;;;12.55;100.00;96411.84;5076277;28;20553;-78
2023/11/29 10:41:26;;;;;;;5.88;3.50;;;;;;;12.52;100.00;96428.19;5059111;28;20036;-79
2023/11/29 10:43:53;;;;;;;6.63;3.17;;;;;;;11.69;100.00;96428.22;5101472;28;20065;-79
2023/11/29 10:46:26;;;;;;;5.88;3.50;;;;;;;11.52;100.00;96442.19;5079434;28;20088;-79
2023/11/29 10:49:12;;;;;;;8.20;5.22;;;;;;;11.49;100.00;96441.59;5062699;28;20078;-79
2023/11/29 10:51:38;;;;;;;10.10;6.03;;;;;;;11.30;100.00;96448.47;5059367;28;20410;-80
2023/11/29 10:54:05;;;;;;;11.95;6.13;;;;;;;11.28;100.00;96454.94;5077287;28;20419;-80
2023/11/29 10:56:31;;;;;;;17.23;8.23;;;;;;;11.06;100.00;96458.50;5083473;28;20034;-80
2023/11/29 10:59:10;;;;;;;11.95;6.40;;;;;;;10.42;100.00;96467.31;5077415;28;20392;-80
2023/11/29 11:01:36;;;;;;;8.48;5.15;;;;;;;9.98;100.00;96468.06;5082327;28;20016;-80
2023/11/29 11:04:03;;;;;;;7.65;4.47;;;;;;;9.76;100.00;96477.69;5096129;28;20026;-78
2023/11/29 11:06:29;;;;;;;15.40;8.70;;;;;;;9.77;100.00;96489.25;5096055;28;20051;-79
2023/11/29 11:08:56;;;;;;;9.07;4.03;;;;;;;9.41;100.00;96484.00;5112986;28;20038;-79
2023/11/29 11:11:41;;;;;;;10.15;5.93;;;;;;;9.16;100.00;96496.47;5062989;28;20142;-79
2023/11/29 11:14:47;;;;;;;7.32;5.30;;;;;;;8.98;100.00;96503.13;5060621;28;20446;-79
2023/11/29 11:17:18;;;;;;;7.80;5.05;;;;;;;8.71;100.00;96489.97;5093760;28;20487;-80
2023/11/29 11:19:47;;;;;;;7.73;4.50;;;;;;;8.80;100.00;96493.78;5074401;28;20132;-80
2023/11/29 11:22:12;;;;;;;9.48;5.13;;;;;;;9.06;100.00;96503.44;5076509;28;20024;-79
2023/11/29 11:24:58;;;;;;;13.43;7.55;;;;;;;9.23;100.00;96494.19;5106350;28;20344;-80